Time;durP1;ratioP1;P1;durP2;ratioP2;P2;SDS_P1;SDS_P2;PMS_P1;PMS_P2;Temp;Humidity;BMP_temperature;BMP_pressure;BME280_temperature;BME280_humidity;BME280_pressure;Samples;Min_cycle;Max_cycle;Signal;HPM_P1;HPM_P2
2021/12/14 00:01:52;;;;;;;50.60;27.33;;;6.20;99.90;;;;;;5013137;28;20457;-73
2021/12/14 00:04:21;;;;;;;49.33;25.40;;;6.20;99.90;;;;;;5008670;28;21012;-72
2021/12/14 00:06:51;;;;;;;55.20;26.00;;;6.20;99.90;;;;;;5032198;28;20482;-72
2021/12/14 00:09:25;;;;;;;45.63;24.63;;;6.20;99.90;;;;;;5027314;28;20455;-73
2021/12/14 00:12:10;;;;;;;48.80;25.63;;;6.20;99.90;;;;;;5012035;28;20481;-73
2021/12/14 00:17:26;;;;;;;44.10;24.40;;;6.20;99.90;;;;;;4998378;28;20465;-73
2021/12/14 00:19:56;;;;;;;43.87;24.57;;;6.20;99.90;;;;;;5012842;28;20454;-72
2021/12/14 00:22:31;;;;;;;43.27;23.03;;;6.20;99.90;;;;;;5012732;28;20505;-72
2021/12/14 00:24:57;;;;;;;42.17;23.90;;;6.20;99.90;;;;;;4993245;28;20455;-73
2021/12/14 00:27:28;;;;;;;40.43;22.43;;;6.20;99.90;;;;;;4992623;28;20526;-72
2021/12/14 00:29:58;;;;;;;40.33;21.90;;;6.20;99.90;;;;;;4993191;28;20459;-72
2021/12/14 00:32:31;;;;;;;41.27;22.53;;;6.20;99.90;;;;;;4998195;28;20830;-73
2021/12/14 00:35:02;;;;;;;44.97;22.43;;;6.20;99.90;;;;;;5021285;28;20450;-72
2021/12/14 00:37:32;;;;;;;38.97;22.50;;;6.20;99.90;;;;;;5031996;28;20477;-72
2021/12/14 00:40:05;;;;;;;44.03;23.53;;;6.20;99.90;;;;;;5032465;28;20457;-73
2021/12/14 00:42:34;;;;;;;42.00;23.40;;;6.20;99.90;;;;;;5022453;28;20450;-72
2021/12/14 00:45:00;;;;;;;42.13;23.57;;;6.20;99.90;;;;;;5012133;28;20497;-73
2021/12/14 00:47:27;;;;;;;43.63;23.10;;;6.10;99.90;;;;;;5012663;28;20462;-72
2021/12/14 00:49:55;;;;;;;48.97;24.70;;;6.10;99.90;;;;;;5012475;28;20500;-72
2021/12/14 00:52:22;;;;;;;44.47;23.97;;;6.10;99.90;;;;;;5009124;28;20497;-72
2021/12/14 00:54:48;;;;;;;47.33;24.67;;;6.00;99.90;;;;;;5012316;28;20458;-72
2021/12/14 00:57:16;;;;;;;38.37;21.87;;;6.00;99.90;;;;;;5013591;28;20483;-73
2021/12/14 00:59:45;;;;;;;42.13;22.73;;;6.00;99.90;;;;;;5010463;28;20454;-72
2021/12/14 01:02:14;;;;;;;43.70;23.07;;;6.00;99.90;;;;;;5020724;28;20457;-73
2021/12/14 01:04:44;;;;;;;42.80;23.20;;;6.10;99.90;;;;;;5018070;28;20454;-72
2021/12/14 01:07:15;;;;;;;39.77;22.00;;;6.00;99.90;;;;;;5012039;28;20528;-72
2021/12/14 01:09:47;;;;;;;37.20;20.70;;;6.10;99.90;;;;;;5012671;28;20457;-73
2021/12/14 01:12:20;;;;;;;39.23;21.43;;;6.10;99.90;;;;;;5012276;28;21020;-72
2021/12/14 01:15:00;;;;;;;36.93;21.47;;;6.10;99.90;;;;;;5012470;28;21139;-73
2021/12/14 01:17:39;;;;;;;36.33;20.40;;;6.10;99.90;;;;;;4996824;28;20527;-73
2021/12/14 01:20:10;;;;;;;34.10;18.63;;;6.10;99.90;;;;;;5012455;28;20533;-73
2021/12/14 01:22:42;;;;;;;31.57;18.17;;;6.10;99.90;;;;;;5012384;28;20825;-73
2021/12/14 01:25:16;;;;;;;33.20;19.03;;;6.10;99.90;;;;;;5026345;28;20961;-72
2021/12/14 01:27:51;;;;;;;31.83;19.37;;;6.10;99.90;;;;;;5029670;28;20592;-72
2021/12/14 01:30:28;;;;;;;39.70;19.97;;;6.10;99.90;;;;;;5017099;28;20460;-72
2021/12/14 01:32:57;;;;;;;27.63;16.47;;;6.10;99.90;;;;;;5015643;28;20488;-73
2021/12/14 01:35:29;;;;;;;32.80;17.70;;;6.10;99.90;;;;;;5008297;28;20451;-72
2021/12/14 01:38:02;;;;;;;25.53;16.03;;;6.10;99.90;;;;;;4995802;28;20478;-72
2021/12/14 01:43:18;;;;;;;27.60;16.80;;;6.10;99.90;;;;;;5020596;28;20440;-72
2021/12/14 01:45:47;;;;;;;23.00;14.93;;;6.10;99.90;;;;;;5018835;28;20481;-73
2021/12/14 01:48:13;;;;;;;23.87;14.37;;;6.10;99.90;;;;;;5003551;28;20466;-72
2021/12/14 01:50:47;;;;;;;20.17;13.77;;;6.10;99.90;;;;;;4995869;28;20455;-73
2021/12/14 01:53:20;;;;;;;22.63;13.80;;;6.10;99.90;;;;;;5009392;28;20525;-72
2021/12/14 01:55:52;;;;;;;24.80;14.97;;;6.10;99.90;;;;;;5026342;28;20458;-73
2021/12/14 01:58:21;;;;;;;22.13;13.70;;;6.10;99.90;;;;;;5014728;28;20970;-72
2021/12/14 02:00:55;;;;;;;22.50;13.00;;;6.10;99.90;;;;;;5018239;28;20455;-72
2021/12/14 02:03:34;;;;;;;21.37;12.83;;;6.10;99.90;;;;;;5015336;28;20457;-72
2021/12/14 02:06:01;;;;;;;24.73;13.90;;;6.20;99.90;;;;;;5012405;28;20450;-73
2021/12/14 02:08:33;;;;;;;22.60;12.60;;;6.20;99.90;;;;;;4995295;28;20513;-73
2021/12/14 02:11:02;;;;;;;23.03;13.20;;;6.10;99.90;;;;;;5022944;28;20485;-73
2021/12/14 02:13:33;;;;;;;23.17;12.93;;;6.20;99.90;;;;;;5034278;28;20551;-73
2021/12/14 02:16:04;;;;;;;21.17;12.37;;;6.20;99.90;;;;;;5024842;28;20453;-72
2021/12/14 02:18:32;;;;;;;23.00;13.80;;;6.20;99.90;;;;;;5015226;28;20454;-73
2021/12/14 02:21:04;;;;;;;21.27;13.97;;;6.20;99.90;;;;;;5022438;28;20461;-73
2021/12/14 02:23:32;;;;;;;19.57;12.33;;;6.20;99.90;;;;;;5030285;28;20446;-72
2021/12/14 02:26:01;;;;;;;22.43;13.40;;;6.20;99.90;;;;;;5014219;28;20449;-72
2021/12/14 02:28:28;;;;;;;31.50;15.83;;;6.20;99.90;;;;;;5014093;28;20450;-73
2021/12/14 02:30:58;;;;;;;22.43;12.90;;;6.10;99.90;;;;;;5013921;28;20454;-73
2021/12/14 02:33:29;;;;;;;25.47;14.47;;;6.20;99.90;;;;;;5014412;28;20482;-72
2021/12/14 02:35:56;;;;;;;23.03;14.50;;;6.10;99.90;;;;;;5013896;28;20486;-73
2021/12/14 02:38:26;;;;;;;22.33;13.87;;;6.10;99.90;;;;;;5000254;28;20459;-72
2021/12/14 02:40:57;;;;;;;25.00;14.43;;;6.10;99.90;;;;;;4994768;28;20510;-72
2021/12/14 02:43:27;;;;;;;20.50;13.27;;;6.10;99.90;;;;;;5031022;28;20519;-72
2021/12/14 02:46:01;;;;;;;19.40;12.80;;;6.10;99.90;;;;;;5016454;28;20527;-73
2021/12/14 02:48:28;;;;;;;20.90;11.80;;;6.10;99.90;;;;;;5004740;28;20485;-72
2021/12/14 02:50:55;;;;;;;19.47;13.10;;;6.10;99.90;;;;;;5004201;28;20462;-72
2021/12/14 02:53:22;;;;;;;21.20;12.47;;;6.10;99.90;;;;;;5014243;28;20482;-73
2021/12/14 02:55:50;;;;;;;22.30;12.80;;;6.20;99.90;;;;;;5013398;28;20796;-72
2021/12/14 02:58:16;;;;;;;24.60;13.07;;;6.20;99.90;;;;;;5014002;28;20454;-73
2021/12/14 03:00:47;;;;;;;22.50;12.93;;;6.20;99.90;;;;;;5013982;28;20454;-72
2021/12/14 03:03:14;;;;;;;19.77;12.47;;;6.20;99.90;;;;;;5026917;28;20454;-72
2021/12/14 03:05:46;;;;;;;23.00;12.57;;;6.20;99.90;;;;;;5015590;28;20516;-72
2021/12/14 03:08:18;;;;;;;22.30;13.13;;;6.20;99.90;;;;;;5013721;28;20945;-72
2021/12/14 03:10:55;;;;;;;19.43;12.47;;;6.10;99.90;;;;;;5013414;28;20504;-72
2021/12/14 03:13:27;;;;;;;18.97;12.57;;;6.10;99.90;;;;;;5013613;28;20493;-72
2021/12/14 03:15:58;;;;;;;20.67;13.87;;;6.20;99.90;;;;;;5013298;28;20524;-73
2021/12/14 03:18:28;;;;;;;26.40;13.57;;;6.20;99.90;;;;;;5022428;28;20507;-73
2021/12/14 03:20:58;;;;;;;25.67;14.73;;;6.20;99.90;;;;;;5032066;28;20457;-72
2021/12/14 03:23:29;;;;;;;28.87;14.47;;;6.20;99.90;;;;;;5033364;28;20441;-72
2021/12/14 03:25:59;;;;;;;22.80;13.47;;;6.20;99.90;;;;;;5013403;28;20455;-72
2021/12/14 03:28:29;;;;;;;26.03;13.60;;;6.20;99.90;;;;;;5013231;28;20946;-72
2021/12/14 03:31:20;;;;;;;25.50;12.73;;;6.20;99.90;;;;;;5017922;28;20461;-72
2021/12/14 03:33:50;;;;;;;20.53;12.97;;;6.10;99.90;;;;;;5032820;28;20493;-72
2021/12/14 03:36:22;;;;;;;24.17;14.27;;;6.10;99.90;;;;;;5032801;28;20493;-72
2021/12/14 03:38:51;;;;;;;22.57;13.90;;;6.10;99.90;;;;;;5013425;28;20962;-72
2021/12/14 03:41:21;;;;;;;25.30;14.60;;;6.10;99.90;;;;;;5011219;28;20454;-73
2021/12/14 03:43:57;;;;;;;28.43;14.57;;;6.10;99.90;;;;;;5013432;28;20508;-72
2021/12/14 03:46:25;;;;;;;24.20;14.57;;;6.20;99.90;;;;;;5031023;28;20472;-72
2021/12/14 03:48:52;;;;;;;21.93;13.40;;;6.20;99.90;;;;;;5010400;28;20449;-72
2021/12/14 03:51:21;;;;;;;23.40;14.20;;;6.20;99.90;;;;;;5024730;28;20451;-73
2021/12/14 03:53:49;;;;;;;24.10;14.20;;;6.20;99.90;;;;;;4993601;28;20490;-72
2021/12/14 03:56:16;;;;;;;23.20;13.80;;;6.20;99.90;;;;;;5010238;28;20839;-72
2021/12/14 03:58:43;;;;;;;25.40;15.10;;;6.20;99.90;;;;;;5021415;28;20529;-72
2021/12/14 04:01:17;;;;;;;23.83;14.10;;;6.20;99.90;;;;;;5017104;28;20453;-72
2021/12/14 04:03:45;;;;;;;25.83;14.60;;;6.20;99.90;;;;;;5022734;28;20453;-72
2021/12/14 04:06:13;;;;;;;27.63;15.00;;;6.20;99.90;;;;;;5020551;28;20529;-72
2021/12/14 04:08:42;;;;;;;27.70;14.90;;;6.20;99.90;;;;;;5012882;28;20919;-72
2021/12/14 04:11:10;;;;;;;24.47;14.17;;;6.20;99.90;;;;;;5012868;28;20481;-72
2021/12/14 04:13:41;;;;;;;30.83;16.50;;;6.30;99.90;;;;;;5013300;28;20540;-73
2021/12/14 04:18:35;;;;;;;24.10;14.53;;;6.30;99.90;;;;;;5045882;23;20567;-72
2021/12/14 04:21:02;;;;;;;25.67;14.90;;;6.30;99.90;;;;;;5031799;28;20617;-72
2021/12/14 04:23:34;;;;;;;23.33;14.30;;;6.20;99.90;;;;;;5017530;28;20446;-72
2021/12/14 04:26:03;;;;;;;35.53;16.00;;;6.20;99.90;;;;;;5012406;28;20446;-72
2021/12/14 04:28:40;;;;;;;28.23;14.77;;;6.20;99.90;;;;;;5013390;28;20469;-72
2021/12/14 04:31:07;;;;;;;27.73;14.60;;;6.10;99.90;;;;;;5018577;28;20453;-72
2021/12/14 04:33:39;;;;;;;33.57;15.97;;;6.10;99.90;;;;;;5011752;28;20478;-72
2021/12/14 04:36:09;;;;;;;26.50;15.00;;;6.10;99.90;;;;;;5015007;28;21012;-72
2021/12/14 04:38:45;;;;;;;30.37;15.60;;;6.10;99.90;;;;;;5016774;28;20469;-72
2021/12/14 04:52:20;;;;;;;51.83;22.90;;;6.20;99.90;;;;;;5017016;28;20453;-72
2021/12/14 04:54:49;;;;;;;42.13;22.57;;;6.30;99.90;;;;;;5011614;28;20458;-72
2021/12/14 04:57:24;;;;;;;51.93;23.57;;;6.30;99.90;;;;;;5011610;28;20524;-72
2021/12/14 04:59:53;;;;;;;54.87;24.90;;;6.30;99.90;;;;;;5014840;28;20592;-72
2021/12/14 05:02:23;;;;;;;54.97;25.43;;;6.30;99.90;;;;;;5010436;28;20455;-72
2021/12/14 05:04:54;;;;;;;50.30;24.80;;;6.30;99.90;;;;;;5012285;28;20878;-72
2021/12/14 05:10:14;;;;;;;58.20;26.83;;;6.30;99.90;;;;;;5028036;28;20525;-72
2021/12/14 05:12:41;;;;;;;58.13;25.33;;;6.40;99.90;;;;;;5015262;28;20482;-72
2021/12/14 05:15:11;;;;;;;58.23;26.03;;;6.40;99.90;;;;;;5014609;28;21008;-72
2021/12/14 05:17:41;;;;;;;55.67;26.57;;;6.40;99.90;;;;;;5001141;28;21065;-72
2021/12/14 05:20:13;;;;;;;58.67;26.00;;;6.40;99.90;;;;;;5015087;28;20454;-72
2021/12/14 05:22:44;;;;;;;52.53;25.10;;;6.40;99.90;;;;;;5015057;28;20505;-72
2021/12/14 05:25:15;;;;;;;63.70;27.10;;;6.40;99.90;;;;;;5015777;28;20457;-72
2021/12/14 05:27:45;;;;;;;54.40;26.00;;;6.40;99.90;;;;;;5034559;28;20492;-72
2021/12/14 05:30:17;;;;;;;57.27;25.70;;;6.40;99.90;;;;;;5030746;28;20859;-72
2021/12/14 05:32:45;;;;;;;55.60;26.87;;;6.40;99.90;;;;;;5015591;28;20507;-72
2021/12/14 05:35:16;;;;;;;52.80;25.37;;;6.40;99.90;;;;;;4996141;28;20947;-72
2021/12/14 05:37:47;;;;;;;58.50;26.17;;;6.40;99.90;;;;;;5013982;28;20540;-72
2021/12/14 05:40:24;;;;;;;63.03;27.87;;;6.50;99.90;;;;;;5014756;28;20580;-72
2021/12/14 05:43:07;;;;;;;61.13;27.87;;;6.50;99.90;;;;;;5014765;28;20442;-72
2021/12/14 05:45:36;;;;;;;54.63;25.50;;;6.50;99.90;;;;;;5031407;28;20964;-72
2021/12/14 05:48:04;;;;;;;61.17;27.03;;;6.50;99.90;;;;;;5022293;28;20556;-72
2021/12/14 05:50:34;;;;;;;68.60;30.90;;;6.50;99.90;;;;;;5027946;28;20453;-72
2021/12/14 05:53:02;;;;;;;59.10;28.10;;;6.50;99.90;;;;;;5015811;28;20481;-72
2021/12/14 05:55:33;;;;;;;73.87;30.53;;;6.50;99.90;;;;;;5013878;28;20497;-72
2021/12/14 05:58:00;;;;;;;59.73;28.70;;;6.50;99.90;;;;;;5014440;28;20486;-72
2021/12/14 06:00:29;;;;;;;63.00;29.40;;;6.50;99.90;;;;;;5024302;28;20451;-72
2021/12/14 06:02:56;;;;;;;62.97;28.33;;;6.50;99.90;;;;;;5030432;28;20454;-72
2021/12/14 06:05:28;;;;;;;57.27;27.07;;;6.50;99.90;;;;;;5014076;28;20520;-72
2021/12/14 06:07:59;;;;;;;54.37;26.90;;;6.50;99.90;;;;;;5013976;28;20525;-72
2021/12/14 06:10:27;;;;;;;60.37;27.43;;;6.50;99.90;;;;;;5014325;28;20446;-72
2021/12/14 06:12:55;;;;;;;62.40;29.17;;;6.50;99.90;;;;;;5015370;28;20485;-72
2021/12/14 06:15:27;;;;;;;59.90;27.40;;;6.50;99.90;;;;;;5005915;28;20459;-72
2021/12/14 06:17:54;;;;;;;67.20;27.20;;;6.50;99.90;;;;;;5028442;28;20492;-72
2021/12/14 06:20:23;;;;;;;63.83;28.27;;;6.50;99.90;;;;;;5032865;28;20469;-73
2021/12/14 06:22:52;;;;;;;71.80;31.30;;;6.50;99.90;;;;;;5033646;28;20449;-72
2021/12/14 06:25:24;;;;;;;60.30;29.10;;;6.50;99.90;;;;;;5033339;28;20907;-72
2021/12/14 06:27:53;;;;;;;69.90;29.20;;;6.50;99.90;;;;;;5017336;28;20482;-72
2021/12/14 06:30:23;;;;;;;67.23;30.57;;;6.50;99.90;;;;;;5004158;28;20832;-72
2021/12/14 06:32:56;;;;;;;63.10;28.90;;;6.50;99.90;;;;;;4993614;28;20506;-73
2021/12/14 06:35:27;;;;;;;66.43;29.57;;;6.50;99.90;;;;;;4994136;28;20518;-72
2021/12/14 06:38:23;;;;;;;72.30;31.27;;;6.50;99.90;;;;;;5009894;28;20481;-72
2021/12/14 06:40:55;;;;;;;63.93;30.97;;;6.50;99.90;;;;;;5015427;28;20496;-72
2021/12/14 06:43:25;;;;;;;64.13;28.83;;;6.50;99.90;;;;;;5013102;28;20450;-72
2021/12/14 06:45:55;;;;;;;64.87;29.33;;;6.50;99.90;;;;;;5012382;28;20460;-72
2021/12/14 06:48:24;;;;;;;70.83;31.37;;;6.50;99.90;;;;;;5000909;28;20564;-72
2021/12/14 06:50:55;;;;;;;69.73;29.80;;;6.50;99.90;;;;;;4998796;28;21009;-73
2021/12/14 06:53:24;;;;;;;71.63;31.70;;;6.50;99.90;;;;;;5013210;28;20536;-72
2021/12/14 06:55:54;;;;;;;65.53;30.17;;;6.50;99.90;;;;;;5013118;28;20458;-73
2021/12/14 06:58:23;;;;;;;69.00;31.93;;;6.50;99.90;;;;;;5025353;28;20470;-72
2021/12/14 07:00:54;;;;;;;62.50;30.30;;;6.50;99.90;;;;;;5032986;28;20500;-72
2021/12/14 07:03:20;;;;;;;63.43;28.83;;;6.50;99.90;;;;;;5032699;28;20452;-72
2021/12/14 07:05:50;;;;;;;61.50;29.57;;;6.50;99.90;;;;;;5025035;28;20473;-72
2021/12/14 07:08:23;;;;;;;65.00;29.73;;;6.50;99.90;;;;;;5007210;28;20868;-72
2021/12/14 07:10:52;;;;;;;72.37;30.50;;;6.50;99.90;;;;;;5030057;28;20515;-72
2021/12/14 07:13:22;;;;;;;65.40;28.33;;;6.50;99.90;;;;;;5025756;28;20886;-72
2021/12/14 07:15:51;;;;;;;68.97;28.33;;;6.50;99.90;;;;;;5008953;28;20463;-72
2021/12/14 07:18:23;;;;;;;56.23;27.43;;;6.50;99.90;;;;;;5012339;28;20537;-72
2021/12/14 07:20:52;;;;;;;64.40;29.97;;;6.50;99.90;;;;;;5019330;28;20552;-72
2021/12/14 07:23:26;;;;;;;67.27;29.53;;;6.50;99.90;;;;;;5022854;28;20868;-72
2021/12/14 07:26:00;;;;;;;64.53;29.40;;;6.50;99.90;;;;;;5012599;28;20532;-72
2021/12/14 07:28:31;;;;;;;59.80;27.20;;;6.50;99.90;;;;;;5007515;28;20470;-72
2021/12/14 07:31:01;;;;;;;50.80;27.00;;;6.60;99.90;;;;;;4992880;28;20455;-72
2021/12/14 07:33:30;;;;;;;50.97;26.47;;;6.60;99.90;;;;;;4997210;28;20995;-73
2021/12/14 07:35:58;;;;;;;57.43;26.33;;;6.60;99.90;;;;;;5003083;28;20458;-72
2021/12/14 07:38:36;;;;;;;51.67;25.27;;;6.60;99.90;;;;;;4992732;28;20475;-73
2021/12/14 07:41:12;;;;;;;52.07;26.40;;;6.60;99.90;;;;;;4992343;28;20513;-73
2021/12/14 07:43:44;;;;;;;55.10;24.97;;;6.60;99.90;;;;;;4991983;28;20463;-74
2021/12/14 07:46:22;;;;;;;52.77;24.47;;;6.60;99.90;;;;;;5001442;28;20950;-72
2021/12/14 07:48:52;;;;;;;51.90;24.67;;;6.60;99.90;;;;;;5005701;28;20449;-71
2021/12/14 07:51:22;;;;;;;60.60;26.27;;;6.70;99.90;;;;;;5007263;28;20957;-72
2021/12/14 07:53:52;;;;;;;58.93;25.73;;;6.60;99.90;;;;;;5011148;28;20478;-72
2021/12/14 07:56:31;;;;;;;46.13;23.43;;;6.70;99.90;;;;;;5017247;28;20488;-72
2021/12/14 07:58:59;;;;;;;49.50;24.00;;;6.60;99.90;;;;;;5016366;28;20457;-72
2021/12/14 08:01:28;;;;;;;55.67;25.37;;;6.60;99.90;;;;;;5014078;28;20449;-72
2021/12/14 08:04:03;;;;;;;50.53;25.17;;;6.60;99.90;;;;;;5026532;28;20899;-72
2021/12/14 08:06:43;;;;;;;53.27;25.50;;;6.60;99.90;;;;;;5016558;28;20977;-72
2021/12/14 08:09:16;;;;;;;62.77;25.27;;;6.60;99.90;;;;;;5008152;28;20452;-72
2021/12/14 08:11:50;;;;;;;53.90;24.37;;;6.70;99.90;;;;;;5021279;28;20554;-73
2021/12/14 08:14:23;;;;;;;57.57;27.57;;;6.60;99.90;;;;;;5013469;28;20485;-73
2021/12/14 08:16:56;;;;;;;57.50;25.17;;;6.60;99.90;;;;;;5009307;28;21005;-73
2021/12/14 08:19:33;;;;;;;49.90;25.23;;;6.70;99.90;;;;;;5014403;28;20949;-73
2021/12/14 08:22:07;;;;;;;53.13;25.17;;;6.70;99.90;;;;;;5026647;28;20516;-74
2021/12/14 08:24:34;;;;;;;52.70;26.10;;;6.70;99.90;;;;;;5030405;28;20964;-73
2021/12/14 08:27:04;;;;;;;53.50;25.13;;;6.70;99.90;;;;;;5012263;28;20474;-72
2021/12/14 08:29:33;;;;;;;57.30;25.80;;;6.80;99.90;;;;;;5004582;28;20582;-73
2021/12/14 08:32:08;;;;;;;47.30;25.10;;;6.80;99.90;;;;;;5022349;28;21027;-72
2021/12/14 08:34:38;;;;;;;52.13;23.40;;;6.80;99.90;;;;;;5033470;28;20487;-72
2021/12/14 08:37:09;;;;;;;48.27;23.77;;;6.80;99.90;;;;;;5032412;28;20993;-73
2021/12/14 08:39:44;;;;;;;50.50;24.70;;;6.80;99.90;;;;;;5004239;28;21073;-72
2021/12/14 08:42:16;;;;;;;45.67;23.63;;;6.90;99.90;;;;;;5014903;28;20453;-71
2021/12/14 08:44:51;;;;;;;55.33;24.80;;;6.90;99.90;;;;;;5029724;28;20450;-72
2021/12/14 08:47:26;;;;;;;52.80;24.70;;;6.90;99.90;;;;;;5014243;28;20482;-72
2021/12/14 08:49:54;;;;;;;45.43;22.40;;;7.00;99.90;;;;;;5028837;28;20444;-72
2021/12/14 08:52:22;;;;;;;48.93;24.27;;;7.00;99.90;;;;;;5027724;28;20464;-72
2021/12/14 08:54:49;;;;;;;47.70;24.47;;;7.00;99.90;;;;;;5016362;28;20497;-72
2021/12/14 08:57:21;;;;;;;46.47;23.40;;;7.00;99.90;;;;;;5012025;28;20500;-72
2021/12/14 08:59:53;;;;;;;45.70;24.70;;;7.10;99.90;;;;;;5014265;28;20454;-72
2021/12/14 09:02:20;;;;;;;42.33;22.93;;;7.10;99.90;;;;;;5030960;28;20473;-72
2021/12/14 09:04:51;;;;;;;45.53;22.97;;;7.20;99.90;;;;;;5009095;28;20457;-72
2021/12/14 09:07:21;;;;;;;48.63;24.70;;;7.20;99.90;;;;;;5012348;28;20535;-71
2021/12/14 09:09:48;;;;;;;48.73;24.57;;;7.20;99.90;;;;;;5014966;28;20828;-72
2021/12/14 09:12:20;;;;;;;41.10;22.27;;;7.20;99.90;;;;;;5010036;28;20939;-72
2021/12/14 09:14:49;;;;;;;36.53;21.00;;;7.30;99.90;;;;;;5021861;28;20486;-72
2021/12/14 09:17:19;;;;;;;41.40;21.67;;;7.30;99.90;;;;;;5013253;28;20477;-72
2021/12/14 09:19:49;;;;;;;35.33;19.47;;;7.30;99.90;;;;;;5022775;28;20452;-72
2021/12/14 09:22:19;;;;;;;36.20;20.70;;;7.30;99.90;;;;;;5029937;28;20468;-72
2021/12/14 09:24:46;;;;;;;42.70;23.20;;;7.30;99.90;;;;;;5015888;28;20465;-72
2021/12/14 09:27:21;;;;;;;40.33;22.50;;;7.30;99.90;;;;;;5012395;28;20546;-72
2021/12/14 09:29:48;;;;;;;37.60;22.43;;;7.30;99.90;;;;;;5014845;28;20549;-72
2021/12/14 09:32:22;;;;;;;42.73;24.10;;;7.30;99.90;;;;;;5016978;28;20970;-72
2021/12/14 09:34:49;;;;;;;43.03;23.87;;;7.30;99.90;;;;;;5022354;28;20584;-72
2021/12/14 09:37:19;;;;;;;43.67;23.70;;;7.30;99.90;;;;;;5025677;28;20560;-72
2021/12/14 09:39:48;;;;;;;45.37;25.20;;;7.40;99.90;;;;;;5022601;28;20829;-72
2021/12/14 09:42:20;;;;;;;39.97;22.00;;;7.40;99.90;;;;;;5018444;28;20475;-72
2021/12/14 09:44:49;;;;;;;46.20;23.50;;;7.40;99.90;;;;;;5016166;28;20450;-72
2021/12/14 09:47:19;;;;;;;46.13;23.50;;;7.40;99.90;;;;;;5031471;28;20480;-72
2021/12/14 09:49:49;;;;;;;55.83;27.23;;;7.50;99.90;;;;;;5012531;28;20516;-72
2021/12/14 09:52:20;;;;;;;51.40;26.67;;;7.50;99.90;;;;;;5014412;28;20492;-73
2021/12/14 09:54:47;;;;;;;44.50;24.20;;;7.50;99.90;;;;;;5016709;28;20513;-76
2021/12/14 09:57:20;;;;;;;49.63;24.67;;;7.40;99.90;;;;;;5010058;28;20529;-74
2021/12/14 09:59:52;;;;;;;45.30;25.40;;;7.40;99.90;;;;;;5015554;28;20457;-74
2021/12/14 10:02:24;;;;;;;48.23;24.00;;;7.30;99.90;;;;;;5016259;28;20450;-74
2021/12/14 10:04:54;;;;;;;52.83;24.83;;;7.40;99.90;;;;;;5012700;28;20458;-75
2021/12/14 10:07:23;;;;;;;51.43;25.90;;;7.30;99.90;;;;;;5013422;28;20477;-74
2021/12/14 10:09:51;;;;;;;50.40;26.70;;;7.30;99.90;;;;;;5013725;28;20470;-74
2021/12/14 10:12:49;;;;;;;55.40;25.63;;;7.30;99.90;;;;;;5017517;28;20476;-74
2021/12/14 10:15:22;;;;;;;53.10;26.33;;;7.30;99.90;;;;;;5019925;28;21014;-75
2021/12/14 10:17:52;;;;;;;54.97;28.30;;;7.30;99.90;;;;;;5025217;28;21053;-74
2021/12/14 10:20:23;;;;;;;47.50;25.93;;;7.30;99.90;;;;;;5013190;28;20877;-74
2021/12/14 10:22:51;;;;;;;52.77;26.83;;;7.40;99.90;;;;;;5010454;28;20462;-74
2021/12/14 10:25:20;;;;;;;71.40;32.80;;;7.40;99.90;;;;;;4993615;28;20924;-74
2021/12/14 10:27:49;;;;;;;58.07;30.20;;;7.40;99.90;;;;;;5019478;28;20843;-74
2021/12/14 10:30:20;;;;;;;54.23;28.37;;;7.40;99.90;;;;;;5011532;28;20463;-74
2021/12/14 10:32:47;;;;;;;50.40;25.67;;;7.40;99.90;;;;;;4993926;28;20455;-75
2021/12/14 10:35:21;;;;;;;52.00;26.57;;;7.40;99.90;;;;;;5012159;28;20898;-74
2021/12/14 10:37:56;;;;;;;48.60;21.40;;;7.50;99.90;;;;;;5011944;28;20984;-74
2021/12/14 10:43:15;;;;;;;31.33;15.73;;;7.50;99.90;;;;;;5024433;28;20452;-75
2021/12/14 10:45:48;;;;;;;30.93;17.20;;;7.50;99.90;;;;;;5028647;28;20476;-75
2021/12/14 10:48:16;;;;;;;33.87;16.87;;;7.50;99.90;;;;;;5019516;28;20469;-74
2021/12/14 10:50:43;;;;;;;27.27;14.80;;;7.50;99.90;;;;;;5031591;28;20867;-74
2021/12/14 10:53:12;;;;;;;31.37;16.70;;;7.50;99.90;;;;;;5014442;28;20467;-75
2021/12/14 10:55:44;;;;;;;28.17;16.40;;;7.50;99.90;;;;;;5011306;28;20478;-75
2021/12/14 10:58:16;;;;;;;27.03;14.97;;;7.60;99.90;;;;;;4999485;28;20483;-75
2021/12/14 11:00:47;;;;;;;30.33;15.17;;;7.50;99.90;;;;;;5025180;28;21238;-74
2021/12/14 11:03:17;;;;;;;32.37;16.53;;;7.60;99.90;;;;;;5004156;28;20459;-74
2021/12/14 11:05:48;;;;;;;23.90;13.73;;;7.60;99.90;;;;;;5017131;28;20908;-73
2021/12/14 11:11:05;;;;;;;30.60;15.10;;;7.60;99.90;;;;;;5020088;28;20452;-74
2021/12/14 11:13:41;;;;;;;24.97;13.47;;;7.70;99.90;;;;;;5007240;28;21021;-74
2021/12/14 11:16:15;;;;;;;25.17;14.03;;;7.70;99.90;;;;;;5018584;28;20513;-75
2021/12/14 11:18:44;;;;;;;26.10;14.40;;;7.80;99.90;;;;;;5032382;28;20535;-74
2021/12/14 11:21:13;;;;;;;24.53;14.20;;;7.80;99.90;;;;;;5000890;28;20963;-74
2021/12/14 11:23:42;;;;;;;17.83;8.43;;;7.80;99.90;;;;;;5033674;28;20937;-75
2021/12/14 11:26:12;;;;;;;20.10;12.63;;;7.80;99.90;;;;;;5033093;28;20511;-74
2021/12/14 11:28:43;;;;;;;19.80;12.07;;;7.80;99.90;;;;;;5033401;28;21002;-74
2021/12/14 11:31:15;;;;;;;18.10;11.13;;;7.90;99.90;;;;;;5032505;28;20455;-73
2021/12/14 11:33:46;;;;;;;18.13;10.90;;;7.90;99.90;;;;;;5020574;28;20879;-74
2021/12/14 11:36:16;;;;;;;19.83;12.02;;;7.90;99.90;;;;;;4996913;28;20469;-72
2021/12/14 11:38:47;;;;;;;18.33;10.90;;;7.90;99.90;;;;;;5002194;28;20227;-74
2021/12/14 11:41:35;;;;;;;15.87;10.73;;;8.00;99.90;;;;;;5031362;28;20457;-75
2021/12/14 11:44:12;;;;;;;15.33;10.07;;;8.00;99.90;;;;;;5013610;28;20454;-74
2021/12/14 11:47:07;;;;;;;18.07;11.03;;;8.00;99.90;;;;;;5001856;28;20471;-75
2021/12/14 11:49:49;;;;;;;21.27;11.80;;;8.00;99.90;;;;;;5012038;28;21230;-75
2021/12/14 11:52:40;;;;;;;17.92;11.00;;;8.00;99.90;;;;;;5004922;28;20452;-75
2021/12/14 11:55:31;;;;;;;17.37;10.10;;;7.90;99.90;;;;;;5013004;28;20218;-73
2021/12/14 11:58:13;;;;;;;18.27;9.90;;;7.90;99.90;;;;;;5028028;28;20547;-74
2021/12/14 12:00:45;;;;;;;15.80;10.70;;;7.90;99.90;;;;;;5004677;28;20458;-73
2021/12/14 12:03:32;;;;;;;16.87;10.73;;;7.90;99.90;;;;;;4997285;28;20463;-73
2021/12/14 12:06:06;;;;;;;16.50;10.00;;;7.90;99.90;;;;;;5018086;28;20442;-73
2021/12/14 12:11:20;;;;;;;16.63;10.53;;;7.80;99.90;;;;;;5018177;28;20500;-74
2021/12/14 12:13:47;;;;;;;17.10;10.03;;;7.80;99.90;;;;;;5020925;28;20449;-74
2021/12/14 12:16:18;;;;;;;16.70;10.23;;;7.80;99.90;;;;;;5016876;28;20486;-73
2021/12/14 12:19:10;;;;;;;22.70;11.17;;;7.80;99.90;;;;;;5024799;28;20453;-74
2021/12/14 12:21:38;;;;;;;19.97;10.30;;;7.80;99.90;;;;;;5004384;28;20458;-75
2021/12/14 12:24:06;;;;;;;18.67;11.67;;;7.80;99.90;;;;;;5007818;28;20442;-74
2021/12/14 12:26:34;;;;;;;24.10;10.90;;;7.70;99.90;;;;;;5010936;28;20512;-74
2021/12/14 12:29:06;;;;;;;20.33;10.33;;;7.80;99.90;;;;;;5004947;28;20535;-76
2021/12/14 12:31:39;;;;;;;18.60;10.87;;;7.80;99.90;;;;;;5039029;23;20582;-90
2021/12/14 12:34:11;;;;;;;20.13;9.60;;;7.80;99.90;;;;;;5025020;28;20457;-90
2021/12/14 12:36:40;;;;;;;16.30;9.57;;;7.80;99.90;;;;;;5002313;28;20491;-90
2021/12/14 12:39:09;;;;;;;20.20;10.43;;;7.80;99.90;;;;;;4994226;28;20827;-90
2021/12/14 12:41:43;;;;;;;21.43;10.63;;;7.80;99.90;;;;;;4994183;28;20454;-91
2021/12/14 12:44:15;;;;;;;21.40;10.77;;;7.80;99.90;;;;;;4984564;28;20452;-90
2021/12/14 12:46:47;;;;;;;16.77;10.43;;;7.90;99.90;;;;;;4974107;28;20461;-90
2021/12/14 12:49:17;;;;;;;19.40;10.10;;;7.80;99.90;;;;;;4975595;28;20459;-91
2021/12/14 12:52:02;;;;;;;18.43;11.70;;;7.80;99.90;;;;;;4974594;28;20460;-90
2021/12/14 12:54:56;;;;;;;18.50;10.70;;;7.80;99.90;;;;;;4972802;28;20456;-90
2021/12/14 12:57:38;;;;;;;21.47;11.40;;;7.70;99.90;;;;;;4982911;28;20494;-90
2021/12/14 13:00:17;;;;;;;16.10;9.50;;;7.70;99.90;;;;;;4984251;28;20483;-90
2021/12/14 13:02:49;;;;;;;14.83;9.10;;;7.70;99.90;;;;;;4974746;28;20464;-90
2021/12/14 13:05:22;;;;;;;17.50;9.50;;;7.50;99.90;;;;;;4975104;28;20920;-90
2021/12/14 13:07:53;;;;;;;14.33;9.47;;;7.70;99.90;;;;;;4993757;28;20469;-90
2021/12/14 13:10:30;;;;;;;18.43;10.10;;;7.60;99.90;;;;;;4993403;28;20889;-90
2021/12/14 13:13:03;;;;;;;18.50;11.43;;;7.60;99.90;;;;;;4987317;28;20497;-91
2021/12/14 13:15:42;;;;;;;17.60;10.40;;;7.60;99.90;;;;;;4979409;28;20476;-90
2021/12/14 13:18:31;;;;;;;15.47;9.57;;;7.60;99.90;;;;;;4978085;28;20458;-91
2021/12/14 13:21:03;;;;;;;17.80;10.23;;;7.60;99.90;;;;;;4993461;28;20513;-91
2021/12/14 13:23:48;;;;;;;17.40;10.70;;;7.60;99.90;;;;;;4998963;28;20481;-92
2021/12/14 13:26:32;;;;;;;20.23;10.60;;;7.60;99.90;;;;;;4994221;28;20529;-91
2021/12/14 13:29:04;;;;;;;15.07;8.80;;;7.60;99.90;;;;;;4988355;28;20448;-90
2021/12/14 13:31:34;;;;;;;15.30;9.30;;;7.60;99.90;;;;;;4980838;28;22274;-91